NCAR-RAP Real-Time Weather Data

Output produced by METARs form (17 January 2018  22:29 UTC)
found at http://weather.rap.ucar.edu/surface/
 
Conditions at: KLEE observed 17 January 2018  21:53 UTC
Temperature: 12.2°C (54°F)
Dewpoint: 6.1°C (43°F) [RH = 66%]
Pressure (altimeter): 30.25 inches Hg (1024.5 mb)
[Sea-level pressure: 1024.2 mb]
Winds: from the NW (310 degrees) at 10 MPH (9 knots; 4.7 m/s)
Visibility: 10 or more miles (16+ km)
Ceiling: 5000 feet AGL
Clouds: overcast cloud deck at 5000 feet AGL
Present Weather: no significant weather observed at this time
KLEE 172153Z 31009KT 10SM OVC050 12/06 A3025 RMK AO2 SLP242 T01220061

Conditions at: KLEE observed 17 January 2018  20:53 UTC
Temperature: 16.7°C (62°F)
Dewpoint: 8.9°C (48°F) [RH = 60%]
Pressure (altimeter): 30.22 inches Hg (1023.5 mb)
[Sea-level pressure: 1023.1 mb]
Winds: from the NW (310 degrees) at 14 MPH (12 knots; 6.2 m/s)
gusting to 23 MPH (20 knots; 10.4 m/s)
Visibility: 10 or more miles (16+ km)
Ceiling: at least 12,000 feet AGL
Clouds: sky clear below 12,000 feet AGL
Present Weather: no significant weather observed at this time
KLEE 172053Z 31012G20KT 10SM CLR 17/09 A3022 RMK AO2 SLP231 T01670089 55004

Conditions at: KLEE observed 17 January 2018  19:53 UTC
Temperature: 18.9°C (66°F)
Dewpoint: 9.4°C (49°F) [RH = 54%]
Pressure (altimeter): 30.20 inches Hg (1022.8 mb)
[Sea-level pressure: 1022.5 mb]
Winds: from the WNW (300 degrees) at 13 MPH (11 knots; 5.7 m/s)
Visibility: 10 or more miles (16+ km)
Ceiling: at least 12,000 feet AGL
Clouds: sky clear below 12,000 feet AGL
Present Weather: no significant weather observed at this time
KLEE 171953Z 30011KT 10SM CLR 19/09 A3020 RMK AO2 SLP225 T01890094

Conditions at: KLEE observed 17 January 2018  18:53 UTC
Temperature: 19.4°C (67°F)
Dewpoint: 9.4°C (49°F) [RH = 52%]
Pressure (altimeter): 30.20 inches Hg (1022.8 mb)
[Sea-level pressure: 1022.4 mb]
Winds: from the W (280 degrees) at 12 MPH (10 knots; 5.2 m/s)
Visibility: 10 or more miles (16+ km)
Ceiling: at least 12,000 feet AGL
Clouds: sky clear below 12,000 feet AGL
Present Weather: no significant weather observed at this time
KLEE 171853Z 28010KT 10SM CLR 19/09 A3020 RMK AO2 SLP224 T01940094

Conditions at: KLEE observed 17 January 2018  17:53 UTC
Temperature: 20.0°C (68°F)
Dewpoint: 8.3°C (47°F) [RH = 47%]
Pressure (altimeter): 30.23 inches Hg (1023.8 mb)
[Sea-level pressure: 1023.6 mb]
Winds: from the W (280 degrees) at 15 MPH (13 knots; 6.8 m/s)
gusting to 21 MPH (18 knots; 9.4 m/s)
Visibility: 10 or more miles (16+ km)
Ceiling: at least 12,000 feet AGL
Clouds: sky clear below 12,000 feet AGL
Present Weather: no significant weather observed at this time
KLEE 171753Z 28013G18KT 10SM CLR 20/08 A3023 RMK AO2 SLP236 T02000083 10200 20067 58016

Conditions at: KLEE observed 17 January 2018  16:53 UTC
Temperature: 18.9°C (66°F)
Dewpoint: 10.0°C (50°F) [RH = 56%]
Pressure (altimeter): 30.26 inches Hg (1024.8 mb)
[Sea-level pressure: 1024.5 mb]
Winds: from the WNW (290 degrees) at 9 MPH (8 knots; 4.2 m/s)
Visibility: 10 or more miles (16+ km)
Ceiling: at least 12,000 feet AGL
Clouds: sky clear below 12,000 feet AGL
Present Weather: no significant weather observed at this time
KLEE 171653Z 29008KT 10SM CLR 19/10 A3026 RMK AO2 SLP245 T01890100

Conditions at: KLEE observed 17 January 2018  15:53 UTC
Temperature: 17.2°C (63°F)
Dewpoint: 8.3°C (47°F) [RH = 56%]
Pressure (altimeter): 30.29 inches Hg (1025.8 mb)
[Sea-level pressure: 1025.6 mb]
Winds: from the W (280 degrees) at 6 MPH (5 knots; 2.6 m/s)
Visibility: 10 or more miles (16+ km)
Ceiling: at least 12,000 feet AGL
Clouds: sky clear below 12,000 feet AGL
Present Weather: no significant weather observed at this time
KLEE 171553Z 28005KT 10SM CLR 17/08 A3029 RMK AO2 SLP256 T01720083

Conditions at: KLEE observed 17 January 2018  14:53 UTC
Temperature: 13.3°C (56°F)
Dewpoint: 10.6°C (51°F) [RH = 84%]
Pressure (altimeter): 30.28 inches Hg (1025.5 mb)
[Sea-level pressure: 1025.2 mb]
Winds: calm
Visibility: 10 or more miles (16+ km)
Ceiling: at least 12,000 feet AGL
Clouds: sky clear below 12,000 feet AGL
Present Weather: no significant weather observed at this time
KLEE 171453Z 00000KT 10SM CLR 13/11 A3028 RMK AO2 SLP252 T01330106 51005

Conditions at: KLEE observed 17 January 2018  13:53 UTC
Temperature: 10.6°C (51°F)
Dewpoint: 10.0°C (50°F) [RH = 96%]
Pressure (altimeter): 30.28 inches Hg (1025.5 mb)
[Sea-level pressure: 1025.1 mb]
Winds: calm
Visibility: 10 or more miles (16+ km)
Ceiling: at least 12,000 feet AGL
Clouds: sky clear below 12,000 feet AGL
Present Weather: no significant weather observed at this time
KLEE 171353Z 00000KT 10SM CLR 11/10 A3028 RMK AO2 SLP251 T01060100

Conditions at: KLEE observed 17 January 2018  12:53 UTC
Temperature: 7.8°C (46°F)
Dewpoint: 7.2°C (45°F) [RH = 96%]
Pressure (altimeter): 30.27 inches Hg (1025.1 mb)
[Sea-level pressure: 1025.1 mb]
Winds: calm
Visibility: 10 or more miles (16+ km)
Ceiling: at least 12,000 feet AGL
Clouds: sky clear below 12,000 feet AGL
Present Weather: no significant weather observed at this time
KLEE 171253Z 00000KT 10SM CLR 08/07 A3027 RMK AO2 SLP251 T00780072

Conditions at: KLEE observed 17 January 2018  11:53 UTC
Temperature: 7.8°C (46°F)
Dewpoint: 7.2°C (45°F) [RH = 96%]
Pressure (altimeter): 30.26 inches Hg (1024.8 mb)
[Sea-level pressure: 1024.7 mb]
Winds: calm
Visibility: 10 or more miles (16+ km)
Ceiling: at least 12,000 feet AGL
Clouds: sky clear below 12,000 feet AGL
Present Weather: no significant weather observed at this time
KLEE 171153Z 00000KT 10SM CLR 08/07 A3026 RMK AO2 SLP247 T00780072 10100 20072 53006

Conditions at: KLEE observed 17 January 2018  11:41 UTC
Temperature: 7.8°C (46°F)
Dewpoint: 7.8°C (46°F) [RH = 100%]
Pressure (altimeter): 30.26 inches Hg (1024.8 mb)
Winds: calm
Visibility: 5 miles (8 km)
Ceiling: at least 12,000 feet AGL
Clouds: sky clear below 12,000 feet AGL
Present Weather: BR  (mist)
KLEE 171141Z AUTO 00000KT 5SM BR CLR 08/08 A3026 RMK AO2 T00780078

Conditions at: KLEE observed 17 January 2018  11:33 UTC
Temperature: 7.8°C (46°F)
Dewpoint: 7.8°C (46°F) [RH = 100%]
Pressure (altimeter): 30.26 inches Hg (1024.8 mb)
Winds: calm
Visibility: 2.00 miles (3.22 km)
Ceiling: at least 12,000 feet AGL
Clouds: sky clear below 12,000 feet AGL
Present Weather: BR  (mist)
KLEE 171133Z AUTO 00000KT 2SM BR CLR 08/08 A3026 RMK AO2 T00780078

Conditions at: KLEE observed 17 January 2018  11:25 UTC
Temperature: 7.8°C (46°F)
Dewpoint: 7.2°C (45°F) [RH = 96%]
Pressure (altimeter): 30.26 inches Hg (1024.8 mb)
Winds: calm
Visibility: 0.50 miles (0.80 km)
Ceiling: at least 12,000 feet AGL
Clouds: sky clear below 12,000 feet AGL
Present Weather: FG  (fog)
KLEE 171125Z AUTO 00000KT 1/2SM FG CLR 08/07 A3026 RMK AO2 T00780072

Conditions at: KLEE observed 17 January 2018  11:16 UTC
Temperature: 7.8°C (46°F)
Dewpoint: 7.8°C (46°F) [RH = 100%]
Pressure (altimeter): 30.26 inches Hg (1024.8 mb)
Winds: calm
Visibility: 1.75 miles (2.82 km)
Ceiling: at least 12,000 feet AGL
Clouds: sky clear below 12,000 feet AGL
Present Weather: BR  (mist)
KLEE 171116Z AUTO 00000KT 1 3/4SM BR CLR 08/08 A3026 RMK AO2 T00780078

Conditions at: KLEE observed 17 January 2018  11:14 UTC
Temperature: 8.3°C (47°F)
Dewpoint: 7.8°C (46°F) [RH = 97%]
Pressure (altimeter): 30.26 inches Hg (1024.8 mb)
Winds: calm
Visibility: 3 miles (5 km)
Ceiling: at least 12,000 feet AGL
Clouds: sky clear below 12,000 feet AGL
Present Weather: BR  (mist)
KLEE 171114Z AUTO 00000KT 3SM BR CLR 08/08 A3026 RMK AO2 T00830078

Conditions at: KLEE observed 17 January 2018  11:00 UTC
Temperature: 7.8°C (46°F)
Dewpoint: 7.8°C (46°F) [RH = 100%]
Pressure (altimeter): 30.25 inches Hg (1024.5 mb)
Winds: calm
Visibility: 1.25 miles (2.01 km)
Ceiling: at least 12,000 feet AGL
Clouds: sky clear below 12,000 feet AGL
Present Weather: BR  (mist)
KLEE 171100Z AUTO 00000KT 1 1/4SM BR CLR 08/08 A3025 RMK AO2 VIS 1/2V4 T00780078

Conditions at: KLEE observed 17 January 2018  10:53 UTC
Temperature: 8.3°C (47°F)
Dewpoint: 7.8°C (46°F) [RH = 97%]
Pressure (altimeter): 30.25 inches Hg (1024.5 mb)
[Sea-level pressure: 1024.3 mb]
Winds: calm
Visibility: 2.00 miles (3.22 km)
Ceiling: at least 12,000 feet AGL
Clouds: sky clear below 12,000 feet AGL
Present Weather: BR  (mist)
KLEE 171053Z AUTO 00000KT 2SM BR CLR 08/08 A3025 RMK AO2 SLP243 T00830078

Conditions at: KLEE observed 17 January 2018  10:41 UTC
Temperature: 8.3°C (47°F)
Dewpoint: 7.8°C (46°F) [RH = 97%]
Pressure (altimeter): 30.25 inches Hg (1024.5 mb)
Winds: calm
Visibility: 3 miles (5 km)
Ceiling: at least 12,000 feet AGL
Clouds: sky clear below 12,000 feet AGL
Present Weather: BR  (mist)
KLEE 171041Z AUTO 00000KT 3SM BR CLR 08/08 A3025 RMK AO2 T00830078

Conditions at: KLEE observed 17 January 2018  10:31 UTC
Temperature: 7.8°C (46°F)
Dewpoint: 7.8°C (46°F) [RH = 100%]
Pressure (altimeter): 30.25 inches Hg (1024.5 mb)
Winds: calm
Visibility: 1.75 miles (2.82 km)
Ceiling: at least 12,000 feet AGL
Clouds: sky clear below 12,000 feet AGL
Present Weather: BR  (mist)
KLEE 171031Z AUTO 00000KT 1 3/4SM BR CLR 08/08 A3025 RMK AO2 T00780078

Conditions at: KLEE observed 17 January 2018  10:02 UTC
Temperature: 9.4°C (49°F)
Dewpoint: 8.9°C (48°F) [RH = 97%]
Pressure (altimeter): 30.25 inches Hg (1024.5 mb)
Winds: calm
Visibility: 8 miles (13 km)
Ceiling: at least 12,000 feet AGL
Clouds: few clouds at 200 feet AGL
Present Weather: automated observation with no human augmentation;
there may or may not be significant weather present at this time
KLEE 171002Z AUTO 00000KT 8SM FEW002 09/09 A3025 RMK AO2 T00940089

Conditions at: KLEE observed 17 January 2018  09:53 UTC
Temperature: 8.9°C (48°F)
Dewpoint: 8.9°C (48°F) [RH = 100%]
Pressure (altimeter): 30.25 inches Hg (1024.5 mb)
[Sea-level pressure: 1024.2 mb]
Winds: calm
Visibility: 5 miles (8 km)
Ceiling: at least 12,000 feet AGL
Clouds: sky clear below 12,000 feet AGL
Present Weather: BR  (mist)
KLEE 170953Z AUTO 00000KT 5SM BR CLR 09/09 A3025 RMK AO2 SLP242 T00890089

Conditions at: KLEE observed 17 January 2018  08:53 UTC
Temperature: 8.3°C (47°F)
Dewpoint: 8.3°C (47°F) [RH = 100%]
Pressure (altimeter): 30.25 inches Hg (1024.5 mb)
[Sea-level pressure: 1024.1 mb]
Winds: from the NW (320 degrees) at 5 MPH (4 knots; 2.1 m/s)
Visibility: 8 miles (13 km)
Ceiling: at least 12,000 feet AGL
Clouds: sky clear below 12,000 feet AGL
Present Weather: automated observation with no human augmentation;
there may or may not be significant weather present at this time
KLEE 170853Z AUTO 32004KT 8SM CLR 08/08 A3025 RMK AO2 SLP241 T00830083 56014

Conditions at: KLEE observed 17 January 2018  07:53 UTC
Temperature: 7.8°C (46°F)
Dewpoint: 7.8°C (46°F) [RH = 100%]
Pressure (altimeter): 30.25 inches Hg (1024.5 mb)
[Sea-level pressure: 1024.3 mb]
Winds: from the NW (320 degrees) at 5 MPH (4 knots; 2.1 m/s)
Visibility: 9 miles (14 km)
Ceiling: at least 12,000 feet AGL
Clouds: sky clear below 12,000 feet AGL
Present Weather: automated observation with no human augmentation;
there may or may not be significant weather present at this time
KLEE 170753Z AUTO 32004KT 9SM CLR 08/08 A3025 RMK AO2 SLP243 T00780078

Conditions at: KLEE observed 17 January 2018  06:53 UTC
Temperature: 9.4°C (49°F)
Dewpoint: 9.4°C (49°F) [RH = 100%]
Pressure (altimeter): 30.27 inches Hg (1025.1 mb)
[Sea-level pressure: 1024.7 mb]
Winds: calm
Visibility: 10 or more miles (16+ km)
Ceiling: at least 12,000 feet AGL
Clouds: sky clear below 12,000 feet AGL
Present Weather: automated observation with no human augmentation;
there may or may not be significant weather present at this time
KLEE 170653Z AUTO 00000KT 10SM CLR 09/09 A3027 RMK AO2 SLP247 T00940094

Conditions at: KLEE observed 17 January 2018  05:53 UTC
Temperature: 10.0°C (50°F)
Dewpoint: 9.4°C (49°F) [RH = 96%]
Pressure (altimeter): 30.29 inches Hg (1025.8 mb)
[Sea-level pressure: 1025.5 mb]
Winds: from the N (350 degrees) at 6 MPH (5 knots; 2.6 m/s)
Visibility: 10 or more miles (16+ km)
Ceiling: at least 12,000 feet AGL
Clouds: sky clear below 12,000 feet AGL
Present Weather: automated observation with no human augmentation;
there may or may not be significant weather present at this time
KLEE 170553Z AUTO 35005KT 10SM CLR 10/09 A3029 RMK AO2 SLP255 T01000094 10161 20100 58011

Conditions at: KLEE observed 17 January 2018  04:53 UTC
Temperature: 11.1°C (52°F)
Dewpoint: 10.6°C (51°F) [RH = 97%]
Pressure (altimeter): 30.30 inches Hg (1026.2 mb)
[Sea-level pressure: 1026.0 mb]
Winds: from the NE (40 degrees) at 3 MPH (3 knots; 1.6 m/s)
Visibility: 10 or more miles (16+ km)
Ceiling: at least 12,000 feet AGL
Clouds: sky clear below 12,000 feet AGL
Present Weather: automated observation with no human augmentation;
there may or may not be significant weather present at this time
KLEE 170453Z AUTO 04003KT 10SM CLR 11/11 A3030 RMK AO2 SLP260 T01110106 402220056

Conditions at: KLEE observed 17 January 2018  03:53 UTC
Temperature: 11.7°C (53°F)
Dewpoint: 10.6°C (51°F) [RH = 93%]
Pressure (altimeter): 30.31 inches Hg (1026.5 mb)
[Sea-level pressure: 1026.2 mb]
Winds: from the ENE (60 degrees) at 6 MPH (5 knots; 2.6 m/s)
Visibility: 10 or more miles (16+ km)
Ceiling: at least 12,000 feet AGL
Clouds: sky clear below 12,000 feet AGL
Present Weather: automated observation with no human augmentation;
there may or may not be significant weather present at this time
KLEE 170353Z AUTO 06005KT 10SM CLR 12/11 A3031 RMK AO2 SLP262 T01170106

Conditions at: KLEE observed 17 January 2018  02:53 UTC
Temperature: 11.7°C (53°F)
Dewpoint: 10.6°C (51°F) [RH = 93%]
Pressure (altimeter): 30.32 inches Hg (1026.8 mb)
[Sea-level pressure: 1026.6 mb]
Winds: from the NE (50 degrees) at 6 MPH (5 knots; 2.6 m/s)
Visibility: 10 or more miles (16+ km)
Ceiling: at least 12,000 feet AGL
Clouds: sky clear below 12,000 feet AGL
Present Weather: automated observation with no human augmentation;
there may or may not be significant weather present at this time
KLEE 170253Z AUTO 05005KT 10SM CLR 12/11 A3032 RMK AO2 SLP266 T01170106 51008

Conditions at: KLEE observed 17 January 2018  01:53 UTC
Temperature: 13.9°C (57°F)
Dewpoint: 11.1°C (52°F) [RH = 83%]
Pressure (altimeter): 30.32 inches Hg (1026.8 mb)
[Sea-level pressure: 1026.5 mb]
Winds: from the NE (40 degrees) at 6 MPH (5 knots; 2.6 m/s)
Visibility: 10 or more miles (16+ km)
Ceiling: at least 12,000 feet AGL
Clouds: sky clear below 12,000 feet AGL
Present Weather: automated observation with no human augmentation;
there may or may not be significant weather present at this time
KLEE 170153Z AUTO 04005KT 10SM CLR 14/11 A3032 RMK AO2 SLP265 T01390111

Conditions at: KLEE observed 17 January 2018  00:53 UTC
Temperature: 14.4°C (58°F)
Dewpoint: 11.1°C (52°F) [RH = 81%]
Pressure (altimeter): 30.31 inches Hg (1026.5 mb)
[Sea-level pressure: 1026.2 mb]
Winds: from the E (90 degrees) at 6 MPH (5 knots; 2.6 m/s)
Visibility: 10 or more miles (16+ km)
Ceiling: at least 12,000 feet AGL
Clouds: sky clear below 12,000 feet AGL
Present Weather: automated observation with no human augmentation;
there may or may not be significant weather present at this time
KLEE 170053Z AUTO 09005KT 10SM CLR 14/11 A3031 RMK AO2 SLP262 T01440111

Conditions at: KLEE observed 16 January 2018  23:53 UTC
Temperature: 16.1°C (61°F)
Dewpoint: 10.6°C (51°F) [RH = 70%]
Pressure (altimeter): 30.29 inches Hg (1025.8 mb)
[Sea-level pressure: 1025.7 mb]
Winds: from the ENE (70 degrees) at 7 MPH (6 knots; 3.1 m/s)
Visibility: 10 or more miles (16+ km)
Ceiling: at least 12,000 feet AGL
Clouds: sky clear below 12,000 feet AGL
Present Weather: automated observation with no human augmentation;
there may or may not be significant weather present at this time
KLEE 162353Z AUTO 07006KT 10SM CLR 16/11 A3029 RMK AO2 SLP257 T01610106 10222 20161 58001

Conditions at: KLEE observed 16 January 2018  22:53 UTC
Temperature: 17.8°C (64°F)
Dewpoint: 10.0°C (50°F) [RH = 60%]
Pressure (altimeter): 30.30 inches Hg (1026.2 mb)
[Sea-level pressure: 1026.0 mb]
Winds: from the NE (40 degrees) at 8 MPH (7 knots; 3.6 m/s)
Visibility: 10 or more miles (16+ km)
Ceiling: at least 12,000 feet AGL
Clouds: sky clear below 12,000 feet AGL
Present Weather: no significant weather observed at this time
KLEE 162253Z 04007KT 10SM CLR 18/10 A3030 RMK AO2 SLP260 T01780100

Conditions at: KLEE observed 16 January 2018  21:53 UTC
Temperature: 20.6°C (69°F)
Dewpoint: 8.3°C (47°F) [RH = 45%]
Pressure (altimeter): 30.29 inches Hg (1025.8 mb)
[Sea-level pressure: 1025.7 mb]
Winds: from the NNE (30 degrees) at 9 MPH (8 knots; 4.2 m/s)
Visibility: 10 or more miles (16+ km)
Ceiling: at least 12,000 feet AGL
Clouds: sky clear below 12,000 feet AGL
Present Weather: no significant weather observed at this time
KLEE 162153Z 03008KT 10SM CLR 21/08 A3029 RMK AO2 SLP257 T02060083

Conditions at: KLEE observed 16 January 2018  20:53 UTC
Temperature: 21.7°C (71°F)
Dewpoint: 5.0°C (41°F) [RH = 34%]
Pressure (altimeter): 30.30 inches Hg (1026.2 mb)
[Sea-level pressure: 1025.9 mb]
Winds: from the NE (40 degrees) at 7 MPH (6 knots; 3.1 m/s)
Visibility: 10 or more miles (16+ km)
Ceiling: at least 12,000 feet AGL
Clouds: scattered clouds at 6000 feet AGL
Present Weather: no significant weather observed at this time
KLEE 162053Z 04006KT 10SM SCT060 22/05 A3030 RMK AO2 SLP259 T02170050 56018

Conditions at: KLEE observed 16 January 2018  19:53 UTC
Temperature: 21.1°C (70°F)
Dewpoint: 5.6°C (42°F) [RH = 36%]
Pressure (altimeter): 30.30 inches Hg (1026.2 mb)
[Sea-level pressure: 1026.1 mb]
Winds: from the SE (130 degrees) at 5 MPH (4 knots; 2.1 m/s)
Visibility: 10 or more miles (16+ km)
Ceiling: at least 12,000 feet AGL
Clouds: sky clear below 12,000 feet AGL
Present Weather: no significant weather observed at this time
KLEE 161953Z 13004KT 10SM CLR 21/06 A3030 RMK AO2 SLP261 T02110056

Conditions at: KLEE observed 16 January 2018  18:53 UTC
Temperature: 20.6°C (69°F)
Dewpoint: 8.3°C (47°F) [RH = 45%]
Pressure (altimeter): 30.32 inches Hg (1026.8 mb)
[Sea-level pressure: 1026.7 mb]
Winds: variable direction winds at 3 MPH (3 knots; 1.6 m/s)
Visibility: 10 or more miles (16+ km)
Ceiling: at least 12,000 feet AGL
Clouds: few clouds at 5000 feet AGL
Present Weather: no significant weather observed at this time
KLEE 161853Z VRB03KT 10SM FEW050 21/08 A3032 RMK AO2 SLP267 T02060083

Conditions at: KLEE observed 16 January 2018  17:53 UTC
Temperature: 20.6°C (69°F)
Dewpoint: 10.0°C (50°F) [RH = 51%]
Pressure (altimeter): 30.35 inches Hg (1027.9 mb)
[Sea-level pressure: 1027.7 mb]
Winds: from the ENE (60 degrees) at 7 MPH (6 knots; 3.1 m/s)
Visibility: 10 or more miles (16+ km)
Ceiling: at least 12,000 feet AGL
Clouds: sky clear below 12,000 feet AGL
Present Weather: no significant weather observed at this time
KLEE 161753Z 06006KT 10SM CLR 21/10 A3035 RMK AO2 SLP277 T02060100 10206 20067 58021

Conditions at: KLEE observed 16 January 2018  16:53 UTC
Temperature: 19.4°C (67°F)
Dewpoint: 10.6°C (51°F) [RH = 57%]
Pressure (altimeter): 30.39 inches Hg (1029.2 mb)
[Sea-level pressure: 1028.8 mb]
Winds: from the E (80 degrees) at 7 MPH (6 knots; 3.1 m/s)
Visibility: 10 or more miles (16+ km)
Ceiling: at least 12,000 feet AGL
Clouds: sky clear below 12,000 feet AGL
Present Weather: no significant weather observed at this time
KLEE 161653Z 08006KT 10SM CLR 19/11 A3039 RMK AO2 SLP288 T01940106

Conditions at: KLEE observed 16 January 2018  15:53 UTC
Temperature: 16.7°C (62°F)
Dewpoint: 10.0°C (50°F) [RH = 65%]
Pressure (altimeter): 30.41 inches Hg (1029.9 mb)
[Sea-level pressure: 1029.5 mb]
Winds: from the NNE (30 degrees) at 9 MPH (8 knots; 4.2 m/s)
Visibility: 10 or more miles (16+ km)
Ceiling: at least 12,000 feet AGL
Clouds: sky clear below 12,000 feet AGL
Present Weather: no significant weather observed at this time
KLEE 161553Z 03008KT 10SM CLR 17/10 A3041 RMK AO2 SLP295 T01670100

Conditions at: KLEE observed 16 January 2018  14:53 UTC
Temperature: 13.3°C (56°F)
Dewpoint: 8.3°C (47°F) [RH = 72%]
Pressure (altimeter): 30.42 inches Hg (1030.2 mb)
[Sea-level pressure: 1029.9 mb]
Winds: from the NNE (30 degrees) at 10 MPH (9 knots; 4.7 m/s)
Visibility: 10 or more miles (16+ km)
Ceiling: at least 12,000 feet AGL
Clouds: sky clear below 12,000 feet AGL
Present Weather: no significant weather observed at this time
KLEE 161453Z 03009KT 10SM CLR 13/08 A3042 RMK AO2 SLP299 T01330083 53011

Conditions at: KLEE observed 16 January 2018  13:53 UTC
Temperature: 11.1°C (52°F)
Dewpoint: 7.8°C (46°F) [RH = 80%]
Pressure (altimeter): 30.40 inches Hg (1029.5 mb)
[Sea-level pressure: 1029.3 mb]
Winds: from the NNE (30 degrees) at 8 MPH (7 knots; 3.6 m/s)
Visibility: 10 or more miles (16+ km)
Ceiling: at least 12,000 feet AGL
Clouds: sky clear below 12,000 feet AGL
Present Weather: no significant weather observed at this time
KLEE 161353Z 03007KT 10SM CLR 11/08 A3040 RMK AO2 SLP293 T01110078

Conditions at: KLEE observed 16 January 2018  12:53 UTC
Temperature: 8.3°C (47°F)
Dewpoint: 6.7°C (44°F) [RH = 90%]
Pressure (altimeter): 30.39 inches Hg (1029.2 mb)
[Sea-level pressure: 1029.0 mb]
Winds: from the N (10 degrees) at 7 MPH (6 knots; 3.1 m/s)
Visibility: 10 or more miles (16+ km)
Ceiling: at least 12,000 feet AGL
Clouds: sky clear below 12,000 feet AGL
Present Weather: no significant weather observed at this time
KLEE 161253Z 01006KT 10SM CLR 08/07 A3039 RMK AO2 SLP290 T00830067

Conditions at: KLEE observed 16 January 2018  11:53 UTC
Temperature: 7.2°C (45°F)
Dewpoint: 6.1°C (43°F) [RH = 93%]
Pressure (altimeter): 30.38 inches Hg (1028.9 mb)
[Sea-level pressure: 1028.9 mb]
Winds: from the N (350 degrees) at 5 MPH (4 knots; 2.1 m/s)
Visibility: 10 or more miles (16+ km)
Ceiling: at least 12,000 feet AGL
Clouds: scattered clouds at 7000 feet AGL
Present Weather: no significant weather observed at this time
KLEE 161153Z 35004KT 10SM SCT070 07/06 A3038 RMK AO2 SLP289 T00720061 10072 20056 53008

Conditions at: KLEE observed 16 January 2018  10:53 UTC
Temperature: 6.7°C (44°F)
Dewpoint: 5.6°C (42°F) [RH = 93%]
Pressure (altimeter): 30.37 inches Hg (1028.5 mb)
[Sea-level pressure: 1028.3 mb]
Winds: from the N (10 degrees) at 7 MPH (6 knots; 3.1 m/s)
Visibility: 10 or more miles (16+ km)
Ceiling: at least 12,000 feet AGL
Clouds: sky clear below 12,000 feet AGL
Present Weather: automated observation with no human augmentation;
there may or may not be significant weather present at this time
KLEE 161053Z AUTO 01006KT 10SM CLR 07/06 A3037 RMK AO2 SLP283 T00670056

Conditions at: KLEE observed 16 January 2018  09:53 UTC
Temperature: 6.1°C (43°F)
Dewpoint: 5.6°C (42°F) [RH = 97%]
Pressure (altimeter): 30.36 inches Hg (1028.2 mb)
[Sea-level pressure: 1028.0 mb]
Winds: from the NNW (340 degrees) at 5 MPH (4 knots; 2.1 m/s)
Visibility: 10 or more miles (16+ km)
Ceiling: at least 12,000 feet AGL
Clouds: few clouds at 7000 feet AGL
Present Weather: automated observation with no human augmentation;
there may or may not be significant weather present at this time
KLEE 160953Z AUTO 34004KT 10SM FEW070 06/06 A3036 RMK AO2 SLP280 T00610056

Conditions at: KLEE observed 16 January 2018  08:53 UTC
Temperature: 6.1°C (43°F)
Dewpoint: 5.6°C (42°F) [RH = 97%]
Pressure (altimeter): 30.36 inches Hg (1028.2 mb)
[Sea-level pressure: 1027.9 mb]
Winds: from the N (360 degrees) at 5 MPH (4 knots; 2.1 m/s)
Visibility: 10 or more miles (16+ km)
Ceiling: at least 12,000 feet AGL
Clouds: few clouds at 7000 feet AGL
Present Weather: automated observation with no human augmentation;
there may or may not be significant weather present at this time
KLEE 160853Z AUTO 36004KT 10SM FEW070 06/06 A3036 RMK AO2 SLP279 T00610056 55005

Conditions at: KLEE observed 16 January 2018  07:53 UTC
Temperature: 5.6°C (42°F)
Dewpoint: 5.0°C (41°F) [RH = 96%]
Pressure (altimeter): 30.36 inches Hg (1028.2 mb)
[Sea-level pressure: 1027.8 mb]
Winds: from the N (360 degrees) at 3 MPH (3 knots; 1.6 m/s)
Visibility: 10 or more miles (16+ km)
Ceiling: at least 12,000 feet AGL
Clouds: scattered clouds at 7000 feet AGL
Present Weather: automated observation with no human augmentation;
there may or may not be significant weather present at this time
KLEE 160753Z AUTO 36003KT 10SM SCT070 06/05 A3036 RMK AO2 SLP278 T00560050

Conditions at: KLEE observed 16 January 2018  06:53 UTC
Temperature: 6.1°C (43°F)
Dewpoint: 5.0°C (41°F) [RH = 93%]
Pressure (altimeter): 30.36 inches Hg (1028.2 mb)
[Sea-level pressure: 1028.0 mb]
Winds: from the N (10 degrees) at 3 MPH (3 knots; 1.6 m/s)
Visibility: 10 or more miles (16+ km)
Ceiling: at least 12,000 feet AGL
Clouds: sky clear below 12,000 feet AGL
Present Weather: automated observation with no human augmentation;
there may or may not be significant weather present at this time
KLEE 160653Z AUTO 01003KT 10SM CLR 06/05 A3036 RMK AO2 SLP280 T00610050

Conditions at: KLEE observed 16 January 2018  05:53 UTC
Temperature: 6.1°C (43°F)
Dewpoint: 4.4°C (40°F) [RH = 89%]
Pressure (altimeter): 30.38 inches Hg (1028.9 mb)
[Sea-level pressure: 1028.6 mb]
Winds: from the N (10 degrees) at 6 MPH (5 knots; 2.6 m/s)
Visibility: 10 or more miles (16+ km)
Ceiling: at least 12,000 feet AGL
Clouds: sky clear below 12,000 feet AGL
Present Weather: automated observation with no human augmentation;
there may or may not be significant weather present at this time
KLEE 160553Z AUTO 01005KT 10SM CLR 06/04 A3038 RMK AO2 SLP286 T00610044 10106 20056 58012

Conditions at: KLEE observed 16 January 2018  04:53 UTC
Temperature: 5.6°C (42°F)
Dewpoint: 3.9°C (39°F) [RH = 89%]
Pressure (altimeter): 30.39 inches Hg (1029.2 mb)
[Sea-level pressure: 1029.1 mb]
Winds: from the N (360 degrees) at 5 MPH (4 knots; 2.1 m/s)
Visibility: 10 or more miles (16+ km)
Ceiling: at least 12,000 feet AGL
Clouds: sky clear below 12,000 feet AGL
Present Weather: automated observation with no human augmentation;
there may or may not be significant weather present at this time
KLEE 160453Z AUTO 36004KT 10SM CLR 06/04 A3039 RMK AO2 SLP291 T00560039 401780056

Conditions at: KLEE observed 16 January 2018  03:53 UTC
Temperature: 6.1°C (43°F)
Dewpoint: 3.9°C (39°F) [RH = 86%]
Pressure (altimeter): 30.41 inches Hg (1029.9 mb)
[Sea-level pressure: 1029.7 mb]
Winds: from the N (360 degrees) at 5 MPH (4 knots; 2.1 m/s)
Visibility: 10 or more miles (16+ km)
Ceiling: at least 12,000 feet AGL
Clouds: sky clear below 12,000 feet AGL
Present Weather: automated observation with no human augmentation;
there may or may not be significant weather present at this time
KLEE 160353Z AUTO 36004KT 10SM CLR 06/04 A3041 RMK AO2 SLP297 T00610039

Conditions at: KLEE observed 16 January 2018  02:53 UTC
Temperature: 7.2°C (45°F)
Dewpoint: 3.9°C (39°F) [RH = 80%]
Pressure (altimeter): 30.41 inches Hg (1029.9 mb)
[Sea-level pressure: 1029.7 mb]
Winds: from the N (10 degrees) at 5 MPH (4 knots; 2.1 m/s)
Visibility: 10 or more miles (16+ km)
Ceiling: at least 12,000 feet AGL
Clouds: sky clear below 12,000 feet AGL
Present Weather: automated observation with no human augmentation;
there may or may not be significant weather present at this time
KLEE 160253Z AUTO 01004KT 10SM CLR 07/04 A3041 RMK AO2 SLP297 T00720039 51009

Conditions at: KLEE observed 16 January 2018  01:53 UTC
Temperature: 8.3°C (47°F)
Dewpoint: 3.9°C (39°F) [RH = 74%]
Pressure (altimeter): 30.41 inches Hg (1029.9 mb)
[Sea-level pressure: 1029.6 mb]
Winds: from the NNE (20 degrees) at 8 MPH (7 knots; 3.6 m/s)
Visibility: 10 or more miles (16+ km)
Ceiling: at least 12,000 feet AGL
Clouds: sky clear below 12,000 feet AGL
Present Weather: automated observation with no human augmentation;
there may or may not be significant weather present at this time
KLEE 160153Z AUTO 02007KT 10SM CLR 08/04 A3041 RMK AO2 SLP296 T00830039

Conditions at: KLEE observed 16 January 2018  00:53 UTC
Temperature: 9.4°C (49°F)
Dewpoint: 3.3°C (38°F) [RH = 66%]
Pressure (altimeter): 30.40 inches Hg (1029.5 mb)
[Sea-level pressure: 1029.4 mb]
Winds: from the NE (50 degrees) at 9 MPH (8 knots; 4.2 m/s)
Visibility: 10 or more miles (16+ km)
Ceiling: at least 12,000 feet AGL
Clouds: sky clear below 12,000 feet AGL
Present Weather: automated observation with no human augmentation;
there may or may not be significant weather present at this time
KLEE 160053Z AUTO 05008KT 10SM CLR 09/03 A3040 RMK AO2 SLP294 T00940033

Conditions at: KLEE observed 15 January 2018  23:53 UTC
Temperature: 10.6°C (51°F)
Dewpoint: 3.3°C (38°F) [RH = 61%]
Pressure (altimeter): 30.38 inches Hg (1028.9 mb)
[Sea-level pressure: 1028.8 mb]
Winds: from the NE (40 degrees) at 9 MPH (8 knots; 4.2 m/s)
Visibility: 10 or more miles (16+ km)
Ceiling: at least 12,000 feet AGL
Clouds: sky clear below 12,000 feet AGL
Present Weather: automated observation with no human augmentation;
there may or may not be significant weather present at this time
KLEE 152353Z AUTO 04008KT 10SM CLR 11/03 A3038 RMK AO2 SLP288 T01060033 10178 20106 53017

Conditions at: KLEE observed 15 January 2018  22:53 UTC
Temperature: 12.8°C (55°F)
Dewpoint: 5.0°C (41°F) [RH = 59%]
Pressure (altimeter): 30.36 inches Hg (1028.2 mb)
[Sea-level pressure: 1028.2 mb]
Winds: from the NNE (30 degrees) at 10 MPH (9 knots; 4.7 m/s)
Visibility: 10 or more miles (16+ km)
Ceiling: at least 12,000 feet AGL
Clouds: sky clear below 12,000 feet AGL
Present Weather: no significant weather observed at this time
KLEE 152253Z 03009KT 10SM CLR 13/05 A3036 RMK AO2 SLP282 T01280050